Data for 12/18/2007

Time Sea-Level Adjusted Pressure Absolute Pressure Temperature Relative Humidity Dew Point   
(mb) (inHg) (mb) (inHg) (C) (F) (%) (C) (F)
00:05 1012 29.88 841 24.83 -0.5 31 46 -10.9 12.4
00:10 1012 29.88 841 24.83 -0.4 31.3 45 -10.9 12.4
00:15 1012 29.88 841 24.83 -0.5 31.1 45 -11.1 12
00:20 1012 29.88 841 24.83 -0.5 31.1 44 -11.3 11.6
00:25 1012 29.88 841 24.83 -0.4 31.2 44 -11.1 12
00:30 1012 29.88 841 24.83 -0.6 31 43 -11.6 11.2
00:35 1012 29.88 841 24.83 -0.4 31.4 43 -11.4 11.4
00:40 1012 29.88 841 24.83 -0.3 31.4 44 -11.3 11.7
00:45 1012 29.88 841 24.83 -0.4 31.2 44 -11.3 11.6
00:50 1012 29.88 841 24.83 -0.5 31.1 44 -11.3 11.6
00:55 1012 29.88 841 24.83 -0.4 31.2 42 -11.9 10.7
01:00 1012 29.88 841 24.83 -0.1 31.8 41 -12 10.4
01:05 1011 29.85 841 24.83 0.1 32.2 41 -11.5 11.2
01:10 1011 29.85 841 24.83 0 32.1 42 -11.4 11.4
01:15 1011 29.85 841 24.83 -0.1 31.9 43 -11.3 11.6
01:20 1011 29.85 841 24.83 -0.1 31.7 42 -11.7 11
01:25 1012 29.88 841 24.83 -0.3 31.4 45 -10.8 12.6
01:30 1011 29.85 841 24.83 -1.2 29.8 46 -11.4 11.5
01:35 1012 29.88 841 24.83 -1.1 30 46 -11.5 11.4
01:40 1012 29.88 841 24.83 -0.9 30.5 45 -11.4 11.6
01:45 1012 29.88 841 24.83 -0.8 30.6 46 -11 12.2
01:50 1012 29.88 841 24.83 -0.8 30.6 46 -11.1 12.1
01:55 1012 29.88 841 24.83 -0.7 30.7 46 -11 12.1
02:00 1012 29.88 841 24.83 -0.6 30.9 45 -11.1 12.1
02:05 1012 29.88 841 24.83 -0.5 31.2 45 -10.9 12.5
02:10 1012 29.88 841 24.83 -0.4 31.4 44 -11.1 12
02:15 1012 29.88 841 24.83 -0.3 31.5 44 -11.1 12.1
02:20 1012 29.88 841 24.83 -0.2 31.6 43 -11.2 11.8
02:25 1012 29.88 841 24.83 -0.1 31.7 44 -11 12.1
02:30 1012 29.88 841 24.83 -0 32 43 -11.3 11.7
02:35 1012 29.88 841 24.83 0 32 44 -10.7 12.7
02:40 1012 29.88 841 24.83 -0 31.9 44 -10.9 12.4
02:45 1012 29.88 841 24.83 -0 31.9 45 -10.7 12.8
02:50 1012 29.88 841 24.83 0 32 44 -10.7 12.7
02:55 1012 29.88 842 24.86 -0 31.9 45 -10.6 12.9
03:00 1012 29.88 841 24.83 0 32 44 -10.7 12.7
03:05 1012 29.88 841 24.83 0.1 32.1 45 -10.6 12.9
03:10 1012 29.88 841 24.83 -0 32 45 -10.5 13.1
03:15 1012 29.88 842 24.86 -0.2 31.7 46 -10.5 13.1
03:20 1012 29.88 842 24.86 -0.1 31.8 46 -10.5 13.1
03:25 1012 29.88 842 24.86 -0.2 31.6 47 -10.2 13.6
03:30 1012 29.88 842 24.86 -0.2 31.7 46 -10.4 13.3
03:35 1012 29.88 842 24.86 -0 32 45 -10.5 13
03:40 1012 29.88 842 24.86 0.1 32.3 42 -11.2 11.8
03:45 1012 29.88 842 24.86 0.5 32.8 42 -11.1 12
03:50 1012 29.88 842 24.86 0.7 33.2 41 -11 12.1
03:55 1012 29.88 842 24.86 0.7 33.2 43 -10.5 13
04:00 1012 29.88 842 24.86 0.5 32.9 44 -10.4 13.2
04:05 1012 29.88 842 24.86 0.2 32.4 48 -9.5 14.9
04:10 1012 29.88 842 24.86 -0.6 30.9 49 -10.1 13.9
04:15 1012 29.88 841 24.83 -0.5 31 46 -10.8 12.5
04:20 1012 29.88 842 24.86 -0.1 31.7 44 -10.9 12.4
04:25 1012 29.88 841 24.83 -0.1 31.8 45 -10.8 12.6
04:30 1012 29.88 842 24.86 0.2 32.3 43 -11 12.1
04:35 1012 29.88 842 24.86 0.3 32.6 44 -10.7 12.8
04:40 1012 29.88 842 24.86 0.2 32.4 44 -10.5 13
04:45 1012 29.88 842 24.86 0.1 32.1 46 -10.3 13.4
04:50 1013 29.91 842 24.86 0.1 32.1 44 -10.9 12.3
04:55 1013 29.91 842 24.86 0.3 32.5 42 -11.3 11.7
05:00 1012 29.88 842 24.86 0.2 32.4 44 -10.7 12.7
05:05 1012 29.88 842 24.86 0.1 32.1 45 -10.4 13.2
05:10 1012 29.88 842 24.86 -0.3 31.4 47 -10.2 13.6
05:15 1013 29.91 842 24.86 -0.7 30.7 49 -10.1 13.8
05:20 1012 29.88 842 24.86 -1 30.2 49 -10.5 13.1
05:25 1013 29.91 842 24.86 -0.9 30.3 49 -10.4 13.2
05:30 1013 29.91 842 24.86 -1 30.2 49 -10.5 13.1
05:35 1012 29.88 842 24.86 -1.1 30 49 -10.5 13.1
05:40 1012 29.88 842 24.86 -1 30.3 47 -10.9 12.3
05:45 1013 29.91 842 24.86 -0.7 30.7 46 -11 12.2
05:50 1012 29.88 842 24.86 -0.6 31 45 -11.1 11.9
05:55 1013 29.91 842 24.86 -0.3 31.5 42 -11.7 10.9
06:00 1013 29.91 842 24.86 -0.1 31.8 44 -11 12.2
06:05 1013 29.91 842 24.86 -0.4 31.3 43 -11.6 11.1
06:10 1013 29.91 842 24.86 -0.3 31.4 42 -11.8 10.8
06:15 1013 29.91 842 24.86 -0.2 31.7 42 -11.6 11.1
06:20 1013 29.91 842 24.86 -0.5 31.1 43 -11.6 11.1
06:25 1013 29.91 842 24.86 -0.9 30.4 44 -11.8 10.8
06:30 1013 29.91 842 24.86 -1.1 30 45 -11.7 10.9
06:35 1013 29.91 842 24.86 -1.5 29.3 48 -11.2 11.8
06:40 1013 29.91 842 24.86 -1.6 29.1 48 -11.2 11.8
06:45 1013 29.91 842 24.86 -1.7 29 45 -12.2 10.1
06:50 1013 29.91 842 24.86 -1.2 29.9 48 -10.7 12.7
06:55 1013 29.91 842 24.86 -1.9 28.6 48 -11.4 11.4
07:00 1013 29.91 842 24.86 -1.8 28.8 49 -11.2 11.8
07:05 1013 29.91 842 24.86 -2.1 28.2 48 -11.6 11.1
07:10 1013 29.91 843 24.89 -2.1 28.3 46 -12.1 10.2
07:15 1013 29.91 843 24.89 -1.4 29.5 43 -12.4 9.6
07:20 1013 29.91 843 24.89 -0.7 30.8 41 -12.4 9.8
07:25 1014 29.94 843 24.89 -0.3 31.5 41 -12.2 10.1
07:30 1013 29.91 843 24.89 -0.1 31.9 40 -12.1 10.3
07:35 1014 29.94 843 24.89 -0.2 31.7 41 -12.1 10.3
07:40 1013 29.91 843 24.89 -0.1 31.8 41 -11.8 10.7
07:45 1014 29.94 843 24.89 -0.2 31.6 42 -11.6 11.1
07:50 1014 29.94 843 24.89 -0.4 31.2 43 -11.5 11.4
07:55 1014 29.94 843 24.89 -0.6 30.9 43 -11.7 11
08:00 1014 29.94 843 24.89 -0.4 31.3 41 -12 10.5
08:05 1014 29.94 843 24.89 -0.5 31.1 44 -11.2 11.9
08:10 1014 29.94 843 24.89 -1.4 29.4 48 -11.2 11.9
08:15 1014 29.94 843 24.89 -2.8 27 51 -11.6 11.2
08:20 1014 29.94 843 24.89 -3 26.5 52 -11.5 11.3
08:25 1014 29.94 843 24.89 -3.1 26.4 51 -11.8 10.8
08:30 1014 29.94 843 24.89 -2.7 27.2 50 -11.8 10.7
08:35 1014 29.94 843 24.89 -2.5 27.5 49 -11.8 10.7
08:40 1014 29.94 843 24.89 -2.5 27.6 49 -11.7 10.9
08:45 1014 29.94 843 24.89 -3 26.6 52 -11.6 11.1
08:50 1014 29.94 843 24.89 -3.2 26.2 52 -11.8 10.8
08:55 1014 29.94 843 24.89 -2.8 26.9 50 -11.9 10.6
09:00 1014 29.94 843 24.89 -2.1 28.2 47 -11.9 10.6
09:05 1014 29.94 843 24.89 -1.9 28.6 47 -11.8 10.8
09:10 1014 29.94 843 24.89 -1.6 29.1 47 -11.6 11.1
09:15 1014 29.94 843 24.89 -1 30.1 44 -11.9 10.6
09:20 1014 29.94 843 24.89 -0.5 31.2 42 -11.7 10.9
09:25 1014 29.94 843 24.89 -0.3 31.4 43 -11.6 11.2
09:30 1014 29.94 843 24.89 -0.1 31.8 41 -11.8 10.8
09:35 1014 29.94 843 24.89 -0.1 31.8 42 -11.4 11.4
09:40 1014 29.94 843 24.89 -0.1 31.8 43 -11.2 11.9
09:45 1014 29.94 843 24.89 -0.2 31.7 43 -11.3 11.7
09:50 1014 29.94 843 24.89 -0.5 31.1 44 -11.2 11.9
09:55 1014 29.94 843 24.89 -0.4 31.2 44 -11.3 11.6
10:00 1014 29.94 843 24.89 -0.2 31.7 43 -11.3 11.7
10:05 1014 29.94 843 24.89 -0.3 31.5 43 -11.4 11.5
10:10 1014 29.94 843 24.89 0.1 32.2 42 -11.3 11.6
10:15 1014 29.94 843 24.89 0.6 33.1 40 -11.5 11.4
10:20 1014 29.94 843 24.89 1.1 33.9 39 -11.4 11.5
10:25 1014 29.94 843 24.89 1.1 33.9 38 -11.6 11.2
10:30 1014 29.94 843 24.89 1.4 34.6 39 -11.2 11.8
10:35 1014 29.94 843 24.89 2 35.5 36 -11.7 10.9
10:40 1014 29.94 843 24.89 2 35.7 38 -11 12.3
10:45 1014 29.94 843 24.89 1.9 35.5 37 -11.4 11.5
10:50 1014 29.94 843 24.89 2.4 36.3 36 -11.4 11.4
10:55 1013 29.91 843 24.89 2.8 37 33 -11.8 10.8
11:00 1013 29.91 843 24.89 3 37.4 34 -11.3 11.6
11:05 1013 29.91 842 24.86 2.7 36.9 36 -10.8 12.6
11:10 1013 29.91 842 24.86 2.6 36.7 35 -11.3 11.6
11:15 1013 29.91 842 24.86 2.4 36.4 37 -10.7 12.7
11:20 1013 29.91 842 24.86 2.2 35.9 36 -11.4 11.5
11:25 1013 29.91 842 24.86 2.2 36 36 -11.4 11.5
11:30 1013 29.91 842 24.86 2.5 36.6 34 -11.7 10.9
11:35 1013 29.91 842 24.86 3 37.4 33 -11.7 11
11:40 1013 29.91 842 24.86 3.7 38.7 33 -11.1 11.9
11:45 1013 29.91 842 24.86 4.1 39.4 33 -10.9 12.4
11:50 1013 29.91 842 24.86 4.3 39.8 33 -10.7 12.8
11:55 1013 29.91 842 24.86 4.6 40.3 32 -10.7 12.8
12:00 1013 29.91 842 24.86 3.9 39 33 -10.9 12.4
12:05 1013 29.91 842 24.86 3.6 38.5 34 -11 12.1
12:10 1012 29.88 842 24.86 4.4 39.9 32 -11.1 12
12:15 1012 29.88 842 24.86 4.8 40.7 33 -10.3 13.5
12:20 1012 29.88 842 24.86 4.1 39.3 32 -11.1 12.1
12:25 1012 29.88 841 24.83 4.7 40.4 32 -10.7 12.7
12:30 1012 29.88 841 24.83 4.8 40.7 35 -9.4 15.1
12:35 1012 29.88 841 24.83 3.8 38.8 37 -9.5 14.9
12:40 1012 29.88 841 24.83 3.9 39.1 35 -10.2 13.6
12:45 1012 29.88 841 24.83 4 39.2 34 -10.4 13.3
12:50 1012 29.88 841 24.83 4.8 40.7 31 -10.8 12.6
12:55 1012 29.88 841 24.83 4.9 40.9 33 -9.9 14.2
13:00 1012 29.88 841 24.83 5.2 41.3 33 -9.8 14.4
13:05 1012 29.88 841 24.83 5.5 42 33 -9.4 15.1
13:10 1012 29.88 841 24.83 5.7 42.3 31 -10.1 13.9
13:15 1011 29.85 841 24.83 5.4 41.6 32 -9.9 14.2
13:20 1011 29.85 840 24.81 4.5 40.2 34 -10.1 13.9
13:25 1011 29.85 840 24.81 4.5 40.1 34 -9.9 14.2
13:30 1011 29.85 840 24.81 4.5 40 35 -9.8 14.4
13:35 1011 29.85 840 24.81 4.5 40 35 -9.7 14.5
13:40 1011 29.85 840 24.81 4 39.3 35 -10 14.1
13:45 1011 29.85 840 24.81 3.8 38.9 35 -10.3 13.5
13:50 1011 29.85 840 24.81 3.7 38.7 36 -9.8 14.3
13:55 1011 29.85 840 24.81 3.7 38.6 37 -9.9 14.3
14:00 1011 29.85 840 24.81 3.9 39 35 -10.3 13.4
14:05 1011 29.85 840 24.81 4 39.1 35 -10.2 13.6
14:10 1011 29.85 840 24.81 4 39.3 36 -9.6 14.7
14:15 1011 29.85 840 24.81 4.5 40 34 -10 14
14:20 1011 29.85 840 24.81 4.7 40.4 34 -9.8 14.3
14:25 1011 29.85 840 24.81 5.1 41.1 33 -9.8 14.3
14:30 1011 29.85 840 24.81 5.5 41.8 33 -9.7 14.5
14:35 1010 29.83 840 24.81 6 42.8 31 -9.7 14.5
14:40 1010 29.83 840 24.81 5.7 42.3 32 -9.6 14.6
14:45 1010 29.83 839 24.78 5.3 41.5 33 -9.7 14.6
14:50 1010 29.83 840 24.81 5.1 41.2 32 -10.1 13.8
14:55 1010 29.83 840 24.81 5.2 41.4 33 -9.7 14.6
15:00 1010 29.83 840 24.81 5.8 42.4 32 -9.8 14.4
15:05 1010 29.83 840 24.81 5.8 42.5 33 -9.3 15.3
15:10 1010 29.83 840 24.81 6 42.9 33 -8.9 16
15:15 1010 29.83 840 24.81 5.6 42.1 35 -8.7 16.3
15:20 1010 29.83 840 24.81 5.1 41.2 38 -8.1 17.4
15:25 1010 29.83 840 24.81 4.7 40.4 39 -8.1 17.3
15:30 1010 29.83 840 24.81 4.3 39.8 40 -8 17.7
15:35 1010 29.83 840 24.81 4.1 39.4 41 -8 17.6
15:40 1010 29.83 840 24.81 4 39.1 42 -7.8 18
15:45 1010 29.83 840 24.81 3.7 38.6 42 -8 17.7
15:50 1010 29.83 840 24.81 3 37.5 45 -7.7 18.1
15:55 1010 29.83 840 24.81 2.6 36.6 46 -7.9 17.7
16:00 1010 29.83 839 24.78 2.6 36.6 45 -8.1 17.5
16:05 1010 29.83 839 24.78 2.6 36.6 45 -8.2 17.3
16:10 1010 29.83 839 24.78 2.5 36.5 46 -8.1 17.4
16:15 1010 29.83 839 24.78 2.5 36.5 47 -7.6 18.4
16:20 1010 29.83 839 24.78 2.4 36.3 47 -7.9 17.8
16:25 1010 29.83 839 24.78 2.5 36.4 47 -7.7 18.2
16:30 1010 29.83 839 24.78 2.3 36.2 50 -7.1 19.1
16:35 1010 29.83 839 24.78 1.9 35.4 50 -7.5 18.5
16:40 1010 29.83 839 24.78 1.7 35 49 -8 17.6
16:45 1010 29.83 839 24.78 1.7 35 47 -8.5 16.7
16:50 1010 29.83 839 24.78 1.9 35.4 45 -8.8 16.2
16:55 1010 29.83 839 24.78 2 35.6 45 -8.8 16.1
17:00 1010 29.83 839 24.78 2.2 35.9 45 -8.7 16.4
17:05 1010 29.83 839 24.78 2.2 36 45 -8.5 16.6
17:10 1010 29.83 839 24.78 2.3 36.1 44 -8.7 16.4
17:15 1010 29.83 839 24.78 2.8 37 44 -8.3 17.1
17:20 1010 29.83 839 24.78 2.6 36.7 46 -7.8 18
17:25 1010 29.83 839 24.78 2.3 36.2 47 -8 17.6
17:30 1010 29.83 839 24.78 2.4 36.3 45 -8.2 17.2
17:35 1010 29.83 839 24.78 2.4 36.3 46 -8.1 17.4
17:40 1010 29.83 839 24.78 2.3 36.1 47 -7.9 17.9
17:45 1010 29.83 839 24.78 2.2 35.9 48 -7.9 17.8
17:50 1010 29.83 839 24.78 2.1 35.8 48 -7.7 18.1
17:55 1010 29.83 839 24.78 2.2 36 48 -7.6 18.3
18:00 1010 29.83 839 24.78 1.9 35.4 51 -7.1 19.2
18:05 1010 29.83 839 24.78 1.8 35.2 51 -7.3 18.9
18:10 1010 29.83 839 24.78 1.8 35.2 52 -7.2 19.1
18:15 1010 29.83 839 24.78 2 35.5 52 -6.9 19.5
18:20 1010 29.83 839 24.78 2 35.5 52 -7 19.5
18:25 1010 29.83 839 24.78 1.8 35.3 52 -6.9 19.5
18:30 1010 29.83 839 24.78 1.8 35.2 52 -7 19.4
18:35 1010 29.83 839 24.78 1.9 35.5 51 -7.2 19.1
18:40 1010 29.83 839 24.78 1.9 35.5 52 -6.8 19.8
18:45 1010 29.83 839 24.78 1.8 35.3 52 -7 19.5
18:50 1010 29.83 839 24.78 1.9 35.4 53 -6.8 19.7
18:55 1010 29.83 839 24.78 2 35.6 51 -7.1 19.2
19:00 1009 29.8 839 24.78 2.2 35.9 52 -6.7 19.9
19:05 1009 29.8 839 24.78 2.1 35.7 53 -6.5 20.4
19:10 1009 29.8 839 24.78 2.5 36.4 51 -6.6 20.2
19:15 1009 29.8 839 24.78 3.2 37.8 48 -6.8 19.8
19:20 1009 29.8 839 24.78 4.1 39.4 46 -6.6 20.1
19:25 1009 29.8 839 24.78 4.2 39.6 48 -5.9 21.4
19:30 1009 29.8 838 24.75 4.2 39.5 47 -6.1 21.1
19:35 1009 29.8 838 24.75 4.4 40 45 -6.6 20.2
19:40 1009 29.8 838 24.75 4.6 40.3 45 -6.3 20.6
19:45 1009 29.8 838 24.75 4.4 39.9 44 -6.7 19.9
19:50 1009 29.8 838 24.75 4.5 40 42 -7.3 18.9
19:55 1009 29.8 838 24.75 4.6 40.2 42 -7.4 18.7
20:00 1009 29.8 838 24.75 4.5 40.2 40 -7.8 18
20:05 1009 29.8 838 24.75 4.6 40.3 42 -7.3 18.9
20:10 1009 29.8 838 24.75 4.3 39.8 44 -6.9 19.6
20:15 1009 29.8 838 24.75 3.8 38.8 48 -6.4 20.6
20:20 1009 29.8 838 24.75 3.5 38.3 47 -6.8 19.7
20:25 1009 29.8 838 24.75 3.4 38.2 48 -6.5 20.3
20:30 1009 29.8 838 24.75 3.3 38 48 -6.6 20.1
20:35 1009 29.8 838 24.75 3.2 37.7 49 -6.6 20.1
20:40 1009 29.8 838 24.75 3.1 37.6 48 -6.8 19.7
20:45 1009 29.8 838 24.75 3.3 37.9 46 -7.2 19
20:50 1009 29.8 838 24.75 3.4 38.1 46 -7.1 19.2
20:55 1009 29.8 838 24.75 3.5 38.2 45 -7.5 18.5
21:00 1009 29.8 838 24.75 3.4 38.2 44 -7.6 18.3
21:05 1009 29.8 838 24.75 3.4 38.1 44 -7.8 18
21:10 1008 29.77 838 24.75 3.6 38.5 41 -8.3 17.1
21:15 1009 29.8 838 24.75 3.9 38.9 43 -7.5 18.5
21:20 1009 29.8 838 24.75 3.8 38.9 42 -7.9 17.8
21:25 1008 29.77 838 24.75 4 39.1 42 -7.9 17.8
21:30 1008 29.77 838 24.75 3.8 38.9 44 -7.3 18.9
21:35 1008 29.77 838 24.75 3.8 38.8 45 -7.2 19
21:40 1008 29.77 838 24.75 3.8 38.8 45 -7 19.4
21:45 1008 29.77 838 24.75 3.6 38.4 46 -7 19.3
21:50 1009 29.8 838 24.75 3.6 38.5 44 -7.5 18.4
21:55 1009 29.8 838 24.75 3.6 38.6 45 -7.2 19
22:00 1009 29.8 838 24.75 3.7 38.6 45 -7.2 19
22:05 1009 29.8 838 24.75 3.6 38.6 46 -6.9 19.6
22:10 1009 29.8 838 24.75 3.5 38.4 46 -7 19.5
22:15 1009 29.8 838 24.75 4.1 39.3 41 -8.1 17.5
22:20 1009 29.8 838 24.75 4.4 40 42 -7.4 18.7
22:25 1009 29.8 838 24.75 4.3 39.8 43 -7.3 18.9
22:30 1009 29.8 838 24.75 4.3 39.7 41 -7.8 18
22:35 1009 29.8 838 24.75 4.4 39.9 41 -7.6 18.3
22:40 1009 29.8 838 24.75 4.8 40.6 41 -7.5 18.4
22:45 1009 29.8 838 24.75 4.7 40.4 39 -8.1 17.4
22:50 1009 29.8 838 24.75 4.8 40.6 40 -7.6 18.4
22:55 1009 29.8 838 24.75 4.5 40.1 43 -7.2 19.1
23:00 1009 29.8 838 24.75 4.5 40.1 43 -7.1 19.3
23:05 1009 29.8 838 24.75 4.2 39.6 45 -6.8 19.7
23:10 1009 29.8 838 24.75 4.1 39.3 46 -6.6 20.2
23:15 1009 29.8 838 24.75 3.9 38.9 45 -7.1 19.2
23:20 1009 29.8 838 24.75 4.3 39.7 43 -7.4 18.7
23:25 1009 29.8 838 24.75 4.3 39.8 43 -7 19.4
23:30 1009 29.8 838 24.75 4.2 39.6 44 -6.9 19.6
23:35 1009 29.8 838 24.75 4.3 39.7 46 -6.3 20.7
23:40 1009 29.8 838 24.75 4.1 39.4 47 -6.2 20.9
23:45 1009 29.8 838 24.75 4 39.2 48 -6.1 21
23:50 1009 29.8 838 24.75 3.9 38.9 49 -6 21.2
23:55 1009 29.8 838 24.75 3.8 38.8 48 -6.2 20.8
24:00 1009 29.8 838 24.75 3.7 38.7 51 -5.6 21.9